Time;durP1;ratioP1;P1;durP2;ratioP2;P2;SDS_P1;SDS_P2;PMS_P1;PMS_P2;Temp;Humidity;BMP_temperature;BMP_pressure;BME280_temperature;BME280_humidity;BME280_pressure;Samples;Min_cycle;Max_cycle;Signal;HPM_P1;HPM_P2
2021/09/02 00:02:18;;;;;;;8.20;7.55;;;11.60;99.90;;;12.36;92.28;98836.59;5131268;28;20611;-62
2021/09/02 00:04:51;;;;;;;8.75;7.95;;;11.60;99.90;;;12.34;92.39;98840.75;5136640;28;20207;-61
2021/09/02 00:07:24;;;;;;;9.48;8.55;;;11.60;99.90;;;12.34;92.75;98833.06;5133999;28;20583;-62
2021/09/02 00:09:59;;;;;;;9.55;8.65;;;11.60;99.90;;;12.38;93.04;98835.03;5133828;28;20200;-64
2021/09/02 00:12:32;;;;;;;9.95;9.02;;;11.60;99.90;;;12.39;93.54;98831.69;5139555;28;20251;-63
2021/09/02 00:15:08;;;;;;;9.23;8.35;;;11.60;99.90;;;12.40;92.84;98826.66;5136133;28;20214;-63
2021/09/02 00:17:41;;;;;;;9.45;8.48;;;11.60;99.90;;;12.35;92.35;98824.56;5137011;28;20279;-62
2021/09/02 00:20:15;;;;;;;10.13;9.02;;;11.60;99.90;;;12.35;91.90;98822.00;5136810;28;20215;-63
2021/09/02 00:22:48;;;;;;;9.30;8.50;;;11.60;99.90;;;12.34;91.80;98823.69;5139945;28;20300;-64
2021/09/02 00:25:23;;;;;;;9.65;8.75;;;11.60;99.90;;;12.34;91.61;98821.13;5136989;28;20204;-63
2021/09/02 00:27:56;;;;;;;9.98;8.98;;;11.60;99.90;;;12.28;92.18;98815.59;5136681;28;20587;-61
2021/09/02 00:30:29;;;;;;;8.77;7.97;;;11.50;99.90;;;12.27;91.61;98816.38;5136815;28;20657;-62
2021/09/02 00:33:03;;;;;;;9.05;8.15;;;11.50;99.90;;;12.23;92.31;98818.66;5137398;28;20704;-61
2021/09/02 00:35:36;;;;;;;9.25;8.35;;;11.50;99.90;;;12.18;92.35;98811.53;5139499;28;20624;-63
2021/09/02 00:38:09;;;;;;;8.63;7.93;;;11.40;99.90;;;12.21;92.34;98805.72;5139088;28;20204;-63
2021/09/02 00:40:43;;;;;;;8.52;7.72;;;11.40;99.90;;;12.23;92.10;98808.41;5137412;28;20554;-63
2021/09/02 00:43:16;;;;;;;9.63;8.63;;;11.40;99.90;;;12.17;92.44;98814.00;5138635;28;20233;-64
2021/09/02 00:45:49;;;;;;;8.63;7.82;;;11.40;99.90;;;12.13;92.44;98812.94;5136876;28;20200;-62
2021/09/02 00:48:22;;;;;;;9.05;8.15;;;11.40;99.90;;;12.09;92.25;98805.81;5138750;28;20200;-63
2021/09/02 00:50:55;;;;;;;10.38;9.10;;;11.30;99.90;;;12.10;92.14;98806.69;5135842;28;20247;-62
2021/09/02 00:53:31;;;;;;;9.27;8.38;;;11.30;99.90;;;12.11;91.88;98804.25;5138544;28;20213;-63
2021/09/02 00:56:06;;;;;;;8.57;7.78;;;11.30;99.90;;;12.08;91.69;98801.47;5141225;28;20200;-63
2021/09/02 00:58:39;;;;;;;8.60;7.80;;;11.30;99.90;;;12.07;91.53;98794.56;5137612;28;20203;-63
2021/09/02 01:01:16;;;;;;;8.52;7.57;;;11.20;99.90;;;12.01;91.59;98799.28;5133929;28;20496;-62
2021/09/02 01:03:50;;;;;;;9.27;8.38;;;11.20;99.90;;;12.02;91.76;98797.59;5136133;28;20242;-64
2021/09/02 01:06:23;;;;;;;9.45;8.40;;;11.20;99.90;;;12.01;91.65;98799.28;5135552;28;20716;-62
2021/09/02 01:08:57;;;;;;;9.10;8.30;;;11.20;99.90;;;11.99;90.96;98803.44;5137811;28;20270;-62
2021/09/02 01:11:52;;;;;;;9.32;8.52;;;11.20;99.90;;;11.94;91.22;98792.00;5136374;28;20710;-59
2021/09/02 01:14:25;;;;;;;8.88;8.18;;;11.10;99.90;;;11.90;91.00;98788.34;5136647;28;20818;-61
2021/09/02 01:16:58;;;;;;;8.98;8.07;;;11.10;99.90;;;11.87;91.12;98792.34;5135880;28;20234;-63
2021/09/02 01:19:31;;;;;;;7.97;7.28;;;11.00;99.90;;;11.82;91.43;98788.59;5136151;28;20210;-62
2021/09/02 01:22:05;;;;;;;7.57;6.85;;;11.00;99.90;;;11.80;90.90;98793.59;5136090;28;20696;-61
2021/09/02 01:24:40;;;;;;;8.38;7.57;;;10.90;99.90;;;11.78;90.69;98786.59;5138117;28;20206;-62
2021/09/02 01:27:13;;;;;;;7.78;7.07;;;10.90;99.90;;;11.77;90.09;98787.38;5135425;28;20207;-62
2021/09/02 01:29:52;;;;;;;8.13;7.43;;;10.90;99.90;;;11.70;90.23;98781.84;5135603;28;20213;-59
2021/09/02 01:32:27;;;;;;;8.20;7.50;;;10.90;99.90;;;11.66;90.14;98787.53;5135590;28;20275;-62
2021/09/02 01:35:02;;;;;;;9.43;7.70;;;10.80;99.90;;;11.66;89.67;98792.66;5136457;28;20258;-63
2021/09/02 01:37:41;;;;;;;7.47;6.88;;;10.80;99.90;;;11.59;90.09;98795.59;5135810;28;20204;-61
2021/09/02 01:40:19;;;;;;;7.55;6.93;;;10.80;99.90;;;11.61;89.78;98794.00;5136510;28;20587;-61
2021/09/02 01:42:53;;;;;;;8.45;7.68;;;10.70;99.90;;;11.53;90.48;98790.03;5134801;28;20224;-62
2021/09/02 01:45:27;;;;;;;8.63;7.82;;;10.70;99.90;;;11.52;90.75;98793.38;5135991;28;20202;-63
2021/09/02 01:48:01;;;;;;;9.27;8.38;;;10.80;99.90;;;11.53;90.72;98789.16;5134820;28;20204;-61
2021/09/02 01:50:37;;;;;;;9.88;8.73;;;10.70;99.90;;;11.54;90.97;98796.06;5134226;28;20208;-63
2021/09/02 01:53:13;;;;;;;10.55;9.55;;;10.70;99.90;;;11.53;90.81;98800.28;5135570;28;20230;-64
2021/09/02 01:55:49;;;;;;;9.38;8.48;;;10.70;99.90;;;11.48;91.14;98796.53;5137977;28;20216;-63
2021/09/02 01:58:22;;;;;;;9.35;8.48;;;10.70;99.90;;;11.48;91.99;98791.41;5137091;28;20196;-63
2021/09/02 02:00:55;;;;;;;9.45;8.70;;;10.70;99.90;;;11.47;91.37;98792.16;5135844;28;20669;-64
2021/09/02 02:03:28;;;;;;;8.40;7.70;;;10.70;99.90;;;11.46;90.91;98793.84;5182533;22;20296;-59
2021/09/02 02:06:01;;;;;;;8.45;7.28;;;10.60;99.90;;;11.43;90.72;98787.63;5175043;28;20201;-58
2021/09/02 02:08:34;;;;;;;8.57;7.53;;;10.60;99.90;;;11.37;91.20;98792.34;5173873;28;20261;-58
2021/09/02 02:11:09;;;;;;;8.35;7.57;;;10.60;99.90;;;11.34;90.72;98789.56;5173639;28;20225;-57
2021/09/02 02:13:42;;;;;;;9.43;8.13;;;10.50;99.90;;;11.29;91.61;98791.81;5171714;28;20701;-57
2021/09/02 02:16:15;;;;;;;8.60;7.80;;;10.50;99.90;;;11.30;90.67;98785.00;5172254;28;20276;-57
2021/09/02 02:18:48;;;;;;;10.05;9.07;;;10.50;99.90;;;11.29;91.12;98789.25;5171123;28;20251;-56
2021/09/02 02:21:21;;;;;;;9.25;8.45;;;10.50;99.90;;;11.25;91.45;98785.59;5166986;28;20207;-58
2021/09/02 02:23:54;;;;;;;10.07;9.20;;;10.50;99.90;;;11.27;90.59;98786.59;5169677;28;20238;-58
2021/09/02 02:26:29;;;;;;;10.13;9.20;;;10.50;99.90;;;11.23;91.20;98787.16;5168326;28;20299;-58
2021/09/02 02:29:03;;;;;;;8.85;8.05;;;10.50;99.90;;;11.24;90.98;98786.34;5168904;28;20232;-58
2021/09/02 02:31:36;;;;;;;9.20;8.00;;;10.50;99.90;;;11.21;90.59;98780.16;5170028;28;20222;-57
2021/09/02 02:34:10;;;;;;;8.98;8.07;;;10.40;99.90;;;11.23;90.33;98786.25;5171762;28;20226;-58
2021/09/02 02:36:43;;;;;;;9.27;8.40;;;10.40;99.90;;;11.21;91.21;98783.59;5174955;28;20214;-59
2021/09/02 02:39:17;;;;;;;9.15;8.25;;;10.40;99.90;;;11.18;90.21;98775.69;5171102;28;20219;-58
2021/09/02 02:41:51;;;;;;;9.48;8.57;;;10.40;99.90;;;11.17;90.69;98779.06;5167304;28;20194;-59
2021/09/02 02:44:24;;;;;;;10.18;9.15;;;10.30;99.90;;;11.14;90.75;98777.97;5167626;28;20213;-58
2021/09/02 02:46:57;;;;;;;10.73;9.65;;;10.40;99.90;;;11.10;90.98;98775.94;5168429;28;20207;-56
2021/09/02 02:49:30;;;;;;;10.95;9.90;;;10.30;99.90;;;11.08;91.92;98778.41;5173394;28;20534;-54
2021/09/02 02:52:04;;;;;;;10.45;9.50;;;10.40;99.90;;;11.11;91.69;98777.75;5168122;28;20223;-58
2021/09/02 02:54:38;;;;;;;11.30;10.18;;;10.40;99.90;;;11.11;92.88;98773.50;5170584;28;20207;-58
2021/09/02 02:57:12;;;;;;;10.43;9.48;;;10.40;99.90;;;11.09;92.72;98767.38;5173930;28;20203;-57
2021/09/02 02:59:45;;;;;;;10.65;9.52;;;10.40;99.90;;;11.11;92.56;98768.41;5168553;28;20201;-56
2021/09/02 03:02:18;;;;;;;9.57;8.80;;;10.40;99.90;;;11.04;91.67;98767.09;5168264;28;20203;-58
2021/09/02 03:04:52;;;;;;;10.55;9.35;;;10.30;99.90;;;11.01;91.74;98771.97;5171316;28;20221;-58
2021/09/02 03:07:25;;;;;;;10.38;9.43;;;10.30;99.90;;;10.94;92.18;98769.78;5172814;28;20774;-58
2021/09/02 03:09:58;;;;;;;11.02;10.02;;;10.20;99.90;;;10.98;92.81;98773.44;5169039;28;20221;-59
2021/09/02 03:12:34;;;;;;;11.10;10.00;;;10.30;99.90;;;10.97;93.92;98775.09;5172131;28;20237;-58
2021/09/02 03:15:09;;;;;;;10.25;9.25;;;10.30;99.90;;;11.00;92.81;98772.75;5168887;28;20202;-58
2021/09/02 03:17:42;;;;;;;10.38;9.38;;;10.30;99.90;;;11.00;93.40;98771.88;5175839;28;20202;-59
2021/09/02 03:20:15;;;;;;;11.50;10.18;;;10.30;99.90;;;10.97;92.65;98774.22;5175949;28;20202;-57
2021/09/02 03:22:48;;;;;;;11.27;10.20;;;10.20;99.90;;;10.95;92.64;98776.66;5174081;28;20233;-58
2021/09/02 03:25:22;;;;;;;11.32;10.23;;;10.20;99.90;;;10.96;92.00;98777.53;5173219;28;20213;-60
2021/09/02 03:27:56;;;;;;;11.80;10.60;;;10.20;99.90;;;10.95;93.24;98775.78;5177370;28;20200;-58
2021/09/02 03:30:29;;;;;;;10.50;9.40;;;10.20;99.90;;;10.96;93.39;98781.00;5169831;28;20518;-56
2021/09/02 03:33:02;;;;;;;11.80;10.63;;;10.20;99.90;;;10.98;94.19;98783.66;5175862;28;20291;-60
2021/09/02 03:35:35;;;;;;;10.75;9.73;;;10.30;99.90;;;10.93;92.98;98783.34;5175614;28;20199;-58
2021/09/02 03:38:08;;;;;;;10.93;9.93;;;10.20;99.90;;;10.89;93.24;98771.13;5181905;28;20266;-60
2021/09/02 03:40:42;;;;;;;11.02;9.93;;;10.20;99.90;;;10.96;93.32;98775.91;5172295;28;20306;-58
2021/09/02 03:43:20;;;;;;;11.02;9.93;;;10.20;99.90;;;10.92;93.37;98778.13;5168348;28;20700;-51
2021/09/02 03:45:53;;;;;;;11.20;10.10;;;10.20;99.90;;;10.90;93.20;98780.59;5172410;28;20289;-56
2021/09/02 03:48:26;;;;;;;10.50;9.50;;;10.20;99.90;;;10.86;93.14;98783.69;5173353;28;20215;-57
2021/09/02 03:50:59;;;;;;;11.55;10.45;;;10.10;99.90;;;10.89;92.30;98780.47;5170173;28;20213;-56
2021/09/02 03:53:32;;;;;;;10.90;9.90;;;10.10;99.90;;;10.86;93.86;98786.25;5173403;28;20254;-54
2021/09/02 03:56:05;;;;;;;11.30;10.20;;;10.10;99.90;;;10.88;93.54;98783.81;5181522;28;20289;-53
2021/09/02 03:58:40;;;;;;;12.07;10.88;;;10.10;99.90;;;10.91;92.53;98781.47;5178012;28;20209;-56
2021/09/02 04:01:13;;;;;;;10.93;9.93;;;10.20;99.90;;;10.87;92.76;98782.91;5170156;28;20206;-59
2021/09/02 04:03:46;;;;;;;10.85;9.85;;;10.20;99.90;;;10.85;93.74;98778.47;5169287;28;20313;-54
2021/09/02 04:06:19;;;;;;;11.38;10.35;;;10.10;99.90;;;10.85;92.72;98778.47;5175818;28;20683;-56
2021/09/02 04:08:53;;;;;;;13.20;10.40;;;10.10;99.90;;;10.80;93.81;98779.03;5175051;28;20257;-56
2021/09/02 04:11:26;;;;;;;11.77;10.73;;;10.10;99.90;;;10.85;92.86;98778.47;5172949;28;20205;-57
2021/09/02 04:14:00;;;;;;;10.85;9.95;;;10.10;99.90;;;10.83;93.56;98780.91;5177826;28;20256;-57
2021/09/02 04:16:33;;;;;;;11.38;10.32;;;10.10;99.90;;;10.83;93.07;98781.81;5178284;28;20611;-52
2021/09/02 04:19:06;;;;;;;12.07;10.98;;;10.10;99.90;;;10.81;92.96;98783.34;5175685;28;20581;-57
2021/09/02 04:21:40;;;;;;;12.15;11.05;;;10.10;99.90;;;10.81;92.74;98778.22;5172859;28;20202;-55
2021/09/02 04:24:13;;;;;;;9.60;8.70;;;10.10;99.90;;;10.80;92.12;98786.69;5174040;28;20223;-55
2021/09/02 04:26:46;;;;;;;9.63;8.73;;;10.00;99.90;;;10.76;91.81;98783.84;5178121;28;20203;-55
2021/09/02 04:29:21;;;;;;;10.27;9.27;;;9.90;99.90;;;10.71;92.40;98798.84;5178415;28;20209;-54
2021/09/02 04:31:54;;;;;;;10.25;9.25;;;9.90;99.90;;;10.68;91.37;98797.72;5175919;28;20572;-56
2021/09/02 04:34:27;;;;;;;9.82;8.60;;;9.80;99.90;;;10.66;90.51;98789.94;5174156;28;20304;-54
2021/09/02 04:37:01;;;;;;;9.27;8.48;;;9.80;99.90;;;10.62;91.70;98790.50;5176340;28;20202;-54
2021/09/02 04:39:34;;;;;;;9.98;8.98;;;9.80;99.90;;;10.59;90.85;98788.63;5177779;28;20217;-56
2021/09/02 04:42:07;;;;;;;9.25;8.40;;;9.80;99.90;;;10.58;91.61;98781.72;5179681;28;20315;-56
2021/09/02 04:44:42;;;;;;;9.60;8.57;;;9.80;99.90;;;10.57;90.52;98786.72;5184780;28;20194;-57
2021/09/02 04:47:15;;;;;;;9.38;8.55;;;9.70;99.90;;;10.53;90.82;98785.63;5176472;28;20199;-58
2021/09/02 04:49:48;;;;;;;10.00;8.93;;;9.70;99.90;;;10.52;90.96;98780.38;5177426;28;20470;-57
2021/09/02 04:52:21;;;;;;;8.82;8.10;;;9.70;99.90;;;10.49;90.39;98780.19;5171192;28;20220;-58
2021/09/02 04:54:55;;;;;;;8.75;8.02;;;9.70;99.90;;;10.52;90.93;98790.63;5177651;28;20233;-57
2021/09/02 04:57:28;;;;;;;9.95;9.05;;;9.70;99.90;;;10.53;90.81;98784.72;5172755;28;20573;-58
2021/09/02 05:00:04;;;;;;;10.07;9.18;;;9.70;99.90;;;10.49;91.58;98791.28;5170817;28;20209;-58
2021/09/02 05:02:37;;;;;;;9.43;8.63;;;9.70;99.90;;;10.44;90.78;98790.06;5172084;28;20234;-58
2021/09/02 05:05:10;;;;;;;9.18;8.27;;;9.70;99.90;;;10.47;91.35;98794.50;5171449;28;20199;-58
2021/09/02 05:07:43;;;;;;;9.77;8.82;;;9.70;99.90;;;10.51;90.50;98793.97;5173194;28;20608;-56
2021/09/02 05:10:17;;;;;;;10.10;9.10;;;9.70;99.90;;;10.56;90.73;98801.19;5174008;28;20199;-56
2021/09/02 05:12:50;;;;;;;11.00;9.95;;;9.80;99.90;;;10.54;90.87;98792.50;5173889;28;20218;-57
2021/09/02 05:15:25;;;;;;;11.43;10.32;;;9.80;99.90;;;10.57;91.79;98791.84;5172457;28;20222;-54
2021/09/02 05:17:58;;;;;;;11.77;10.55;;;9.80;99.90;;;10.63;92.09;98792.28;5171017;28;20206;-56
2021/09/02 05:20:31;;;;;;;12.43;11.30;;;9.90;99.90;;;10.68;91.63;98801.19;5172772;28;20210;-57
2021/09/02 05:23:04;;;;;;;11.98;10.90;;;9.90;99.90;;;10.79;91.87;98805.38;5174576;28;20237;-57
2021/09/02 05:25:38;;;;;;;11.68;10.45;;;10.00;99.90;;;10.89;92.34;98800.91;5174887;28;20202;-57
2021/09/02 05:28:11;;;;;;;12.60;11.38;;;10.10;99.90;;;11.04;92.25;98797.78;5172212;28;20574;-58
2021/09/02 05:30:45;;;;;;;11.90;10.82;;;10.30;99.90;;;11.22;91.54;98798.19;5175043;28;20201;-58
2021/09/02 05:33:18;;;;;;;12.63;11.45;;;10.40;99.90;;;11.37;91.24;98803.47;5173696;28;20222;-58
2021/09/02 05:35:51;;;;;;;14.70;13.30;;;10.50;99.90;;;11.46;90.05;98800.66;5172455;28;20213;-58
2021/09/02 05:38:24;;;;;;;13.98;12.57;;;10.60;99.90;;;11.58;89.04;98801.47;5174108;28;20569;-56
2021/09/02 05:40:57;;;;;;;13.07;11.88;;;10.70;99.90;;;11.83;87.81;98790.34;5176200;28;20203;-58
2021/09/02 05:43:30;;;;;;;11.40;10.40;;;10.80;99.90;;;12.30;87.52;98779.81;5169080;28;20309;-56
2021/09/02 05:46:05;;;;;;;12.05;10.95;;;11.20;99.90;;;12.79;86.25;98785.50;5174435;28;20233;-57
2021/09/02 05:48:38;;;;;;;11.88;10.77;;;11.60;99.90;;;13.10;81.16;98779.75;5176586;28;20686;-55
2021/09/02 05:51:11;;;;;;;11.75;10.55;;;11.90;99.90;;;13.54;81.49;98790.22;5177852;28;20209;-58
2021/09/02 05:53:44;;;;;;;10.88;9.88;;;12.20;99.90;;;14.04;79.56;98784.59;5174902;28;20233;-57
2021/09/02 05:56:17;;;;;;;10.88;9.77;;;12.60;99.90;;;14.51;77.56;98793.28;5184119;28;20673;-58
2021/09/02 05:58:50;;;;;;;10.85;9.73;;;13.00;99.90;;;14.93;74.96;98789.66;5181226;28;20219;-58
2021/09/02 06:01:25;;;;;;;12.90;10.02;;;13.30;99.90;;;14.77;71.65;98787.06;5185199;28;20213;-56
2021/09/02 06:03:58;;;;;;;9.07;8.30;;;13.40;99.90;;;15.25;72.44;98788.84;5176339;28;20238;-58
2021/09/02 06:06:32;;;;;;;10.55;9.43;;;13.50;99.90;;;15.42;71.27;98781.09;5176579;28;20526;-58
2021/09/02 06:09:07;;;;;;;10.00;9.10;;;13.60;99.90;;;15.92;70.50;98781.19;5170325;28;20202;-56
2021/09/02 06:11:40;;;;;;;9.73;8.82;;;13.90;99.90;;;16.11;68.77;98782.09;5174007;28;20209;-58
2021/09/02 06:14:13;;;;;;;10.10;9.20;;;14.20;99.90;;;16.55;67.25;98786.00;5170704;28;20230;-57
2021/09/02 06:16:47;;;;;;;10.82;9.77;;;14.40;99.90;;;16.71;65.88;98774.72;5168615;28;20203;-57
2021/09/02 06:19:21;;;;;;;10.23;9.13;;;14.70;99.90;;;17.01;65.20;98777.91;5174264;28;20398;-59
2021/09/02 06:21:54;;;;;;;9.75;8.85;;;14.90;99.90;;;17.09;65.23;98777.44;5174971;28;20655;-58
2021/09/02 06:24:27;;;;;;;10.13;9.27;;;15.10;99.90;;;17.11;64.53;98783.56;5175709;28;20781;-58
2021/09/02 06:27:00;;;;;;;10.00;8.90;;;15.20;99.90;;;17.41;64.70;98772.84;5176960;28;20229;-58
2021/09/02 06:29:33;;;;;;;10.30;9.30;;;15.30;99.90;;;17.87;63.64;98782.66;5171345;28;20373;-57
2021/09/02 06:32:08;;;;;;;9.73;8.85;;;15.60;99.90;;;17.93;62.84;98777.75;5170363;28;20217;-59
2021/09/02 06:34:41;;;;;;;9.85;8.85;;;16.00;99.90;;;18.03;62.00;98771.28;5170112;28;20226;-58
2021/09/02 06:37:15;;;;;;;9.35;8.55;;;16.00;99.90;;;18.58;61.23;98780.44;5171741;28;20205;-59
2021/09/02 06:39:49;;;;;;;10.70;9.60;;;16.30;99.90;;;18.88;60.03;98775.59;5171010;28;20206;-57
2021/09/02 06:42:22;;;;;;;9.63;8.65;;;16.60;99.90;;;18.84;59.63;98768.53;5175490;28;20198;-59
2021/09/02 06:44:55;;;;;;;9.75;8.90;;;16.90;99.90;;;19.28;59.51;98767.63;5170325;28;20195;-59
2021/09/02 06:47:30;;;;;;;10.93;9.88;;;17.20;99.90;;;19.26;59.01;98779.69;5175888;28;20203;-57
2021/09/02 06:50:04;;;;;;;10.15;9.23;;;17.20;99.90;;;19.58;57.92;98783.44;5173958;28;20678;-59
2021/09/02 06:52:37;;;;;;;9.95;8.95;;;17.50;99.90;;;19.98;56.46;98778.81;5171117;28;20267;-59
2021/09/02 06:55:12;;;;;;;9.93;8.93;;;17.80;99.90;;;20.29;56.60;98785.03;5170100;28;20230;-58
2021/09/02 06:57:45;;;;;;;10.32;9.10;;;17.90;99.90;;;20.28;55.32;98783.28;5168419;28;20206;-59
2021/09/02 07:00:19;;;;;;;9.68;8.68;;;18.00;99.90;;;20.82;54.45;98783.34;5175894;28;20563;-56
2021/09/02 07:02:54;;;;;;;9.15;8.25;;;18.20;99.90;;;20.94;53.69;98781.13;5175513;28;20549;-58
2021/09/02 07:05:27;;;;;;;10.38;9.30;;;18.30;99.90;;;21.50;52.96;98781.97;5170246;28;20273;-59
2021/09/02 07:08:00;;;;;;;11.02;9.07;;;18.40;99.90;;;21.64;52.70;98776.28;5176415;28;20203;-59
2021/09/02 07:10:41;;;;;;;9.57;8.68;;;18.50;99.90;;;21.97;51.38;98789.31;5170797;28;20306;-55
2021/09/02 07:13:14;;;;;;;10.20;9.30;;;18.80;99.90;;;22.09;50.85;98783.56;5170851;28;20765;-59
2021/09/02 07:15:47;;;;;;;9.18;8.27;;;18.80;99.90;;;22.57;50.22;98785.66;5168573;28;20218;-57
2021/09/02 07:18:22;;;;;;;9.85;8.88;;;19.00;99.90;;;22.72;49.59;98788.66;5170755;28;20215;-59
2021/09/02 07:20:55;;;;;;;10.50;9.15;;;19.30;99.90;;;22.79;49.66;98784.47;5169903;28;20205;-58
2021/09/02 07:23:28;;;;;;;9.05;8.25;;;19.50;99.90;;;23.18;48.60;98781.91;5170423;28;20219;-57
2021/09/02 07:26:01;;;;;;;9.75;8.85;;;19.70;99.90;;;23.31;48.59;98781.31;5172063;28;20202;-59
2021/09/02 07:28:34;;;;;;;8.93;8.13;;;19.80;99.90;;;22.62;49.00;98784.94;5173522;28;20285;-59
2021/09/02 07:31:07;;;;;;;9.88;8.90;;;19.70;99.90;;;22.14;50.50;98792.38;5174073;28;20206;-58
2021/09/02 07:33:42;;;;;;;9.00;8.30;;;19.60;99.90;;;22.30;51.77;98791.97;5173494;28;20230;-58
2021/09/02 07:36:15;;;;;;;9.02;8.25;;;19.70;99.90;;;22.26;52.04;98787.50;5173414;28;20605;-59
2021/09/02 07:39:06;;;;;;;9.60;8.70;;;20.10;99.90;;;22.19;52.31;98788.19;5172729;28;20273;-59
2021/09/02 07:41:41;;;;;;;8.77;7.93;;;20.30;99.90;;;22.01;52.75;98788.56;5171131;28;20194;-59
2021/09/02 07:44:14;;;;;;;9.18;8.38;;;20.10;99.90;;;22.24;53.14;98799.63;5170205;28;20698;-59
2021/09/02 07:46:47;;;;;;;9.35;8.43;;;20.20;99.90;;;22.37;52.96;98793.88;5168509;28;20651;-58
2021/09/02 07:49:21;;;;;;;8.95;8.23;;;20.40;99.90;;;22.21;52.57;98794.34;5172422;28;20555;-59
2021/09/02 07:51:54;;;;;;;9.30;8.50;;;20.70;99.90;;;22.24;52.98;98794.41;5176428;28;20198;-59
2021/09/02 07:54:27;;;;;;;8.63;7.82;;;20.80;99.90;;;22.33;52.16;98799.84;5175694;28;20218;-59
2021/09/02 07:57:01;;;;;;;9.25;8.38;;;20.80;99.90;;;22.35;52.73;98802.47;5169540;28;20209;-59
2021/09/02 07:59:34;;;;;;;8.30;7.50;;;21.00;99.90;;;22.22;52.41;98801.31;5172559;28;20302;-59
2021/09/02 08:02:07;;;;;;;8.65;7.75;;;21.10;99.90;;;22.29;52.55;98800.63;5171209;28;20207;-59
2021/09/02 08:04:42;;;;;;;8.25;7.45;;;21.20;99.90;;;22.30;53.10;98789.38;5175936;28;20238;-59
2021/09/02 08:07:15;;;;;;;8.23;7.53;;;21.10;99.90;;;22.34;52.62;98799.00;5173001;28;20285;-60
2021/09/02 08:09:50;;;;;;;8.60;7.53;;;21.20;99.90;;;22.07;54.04;98795.66;5171909;28;20567;-57
2021/09/02 08:12:23;;;;;;;8.95;7.95;;;21.00;99.90;;;22.21;53.67;98804.75;5169733;28;20202;-59
2021/09/02 08:14:56;;;;;;;8.52;7.82;;;21.10;99.90;;;22.15;53.67;98801.94;5169140;28;20234;-59
2021/09/02 08:17:29;;;;;;;8.48;7.68;;;21.20;99.90;;;22.36;54.26;98802.53;5169566;28;20214;-59
2021/09/02 08:20:04;;;;;;;8.10;7.40;;;21.40;99.90;;;22.62;53.24;98807.53;5171686;28;20199;-59
2021/09/02 08:22:39;;;;;;;8.55;7.75;;;21.70;99.90;;;22.77;51.40;98804.41;5169327;28;20310;-58
2021/09/02 08:25:13;;;;;;;8.38;7.68;;;21.70;99.90;;;22.72;52.14;98809.53;5174875;28;20191;-57
2021/09/02 08:27:46;;;;;;;8.50;7.70;;;21.80;99.90;;;22.73;52.32;98800.84;5169173;28;20206;-58
2021/09/02 08:30:23;;;;;;;8.35;7.63;;;21.90;99.90;;;22.78;52.58;98803.53;5169950;28;20247;-56
2021/09/02 08:32:58;;;;;;;8.70;7.90;;;22.00;99.90;;;22.81;53.09;98803.66;5180585;28;20229;-56
2021/09/02 08:35:35;;;;;;;8.65;7.88;;;21.80;99.90;;;22.75;52.75;98804.38;5171688;28;20664;-58
2021/09/02 08:38:10;;;;;;;7.82;7.15;;;21.70;99.90;;;22.84;51.58;98801.09;5176266;28;20198;-53
2021/09/02 08:40:43;;;;;;;7.53;6.85;;;22.00;99.90;;;22.94;52.32;98806.53;5173700;28;20202;-58
2021/09/02 08:43:18;;;;;;;8.25;7.47;;;22.10;99.90;;;22.74;52.91;98801.72;5175554;28;20229;-58
2021/09/02 08:46:11;;;;;;;7.90;7.30;;;22.10;99.90;;;22.79;52.11;98800.97;5173202;28;20206;-55
2021/09/02 08:48:48;;;;;;;8.00;7.30;;;22.10;99.90;;;23.03;52.02;98799.81;5174373;28;20206;-60
2021/09/02 08:51:22;;;;;;;8.45;7.75;;;22.20;99.90;;;22.93;51.87;98788.28;5173782;28;20208;-61
2021/09/02 08:53:56;;;;;;;7.88;7.15;;;22.30;99.90;;;23.19;52.21;98791.50;5174041;28;20348;-61
2021/09/02 08:56:30;;;;;;;7.80;6.68;;;22.60;99.90;;;23.54;50.64;98789.63;5175377;28;20285;-62
2021/09/02 08:59:03;;;;;;;8.15;7.45;;;22.90;99.60;;;23.59;51.13;98792.34;5175838;28;20237;-62
2021/09/02 09:01:36;;;;;;;9.00;8.10;;;23.10;99.90;;;23.59;49.72;98792.34;5174667;28;20519;-59
2021/09/02 09:04:11;;;;;;;7.97;7.28;;;23.00;99.00;;;23.47;50.56;98784.25;5173824;28;20226;-59
2021/09/02 09:06:45;;;;;;;8.40;7.65;;;22.80;99.40;;;23.22;49.88;98788.06;5177448;28;20214;-58
2021/09/02 09:09:19;;;;;;;7.97;7.28;;;22.60;98.90;;;23.19;50.22;98782.78;5172406;28;20198;-59
2021/09/02 09:11:53;;;;;;;7.53;6.93;;;22.50;99.10;;;23.29;49.65;98782.13;5172771;28;20205;-58
2021/09/02 09:14:28;;;;;;;8.07;7.28;;;22.60;98.70;;;23.16;51.45;98788.81;5170207;28;20231;-58
2021/09/02 09:17:02;;;;;;;8.45;7.70;;;22.60;99.70;;;23.43;49.79;98780.69;5173498;28;20321;-59
2021/09/02 09:19:41;;;;;;;7.72;7.13;;;23.00;98.50;;;23.49;50.37;98772.09;5175069;28;20202;-59
2021/09/02 09:22:16;;;;;;;7.82;7.13;;;23.00;99.10;;;23.55;49.53;98773.13;5175757;28;20647;-57
2021/09/02 09:24:51;;;;;;;8.30;7.60;;;23.10;98.80;;;23.69;48.58;98777.72;5178530;28;20657;-59
2021/09/02 09:27:35;;;;;;;8.57;7.70;;;23.10;97.60;;;23.62;48.24;98779.34;5173220;28;20580;-57
2021/09/02 09:30:15;;;;;;;8.45;7.63;;;23.10;97.50;;;23.55;48.51;98785.28;5172736;28;20209;-58
2021/09/02 09:32:51;;;;;;;8.25;7.45;;;23.00;97.70;;;23.67;49.30;98775.09;5174368;28;20701;-59
2021/09/02 09:35:27;;;;;;;7.78;7.07;;;23.20;98.30;;;23.86;48.92;98772.88;5175133;28;20198;-57
2021/09/02 09:38:07;;;;;;;7.63;7.03;;;23.30;97.70;;;24.02;48.66;98774.91;5178075;28;20199;-59
2021/09/02 09:40:43;;;;;;;8.07;7.25;;;23.40;98.00;;;24.20;47.51;98766.53;5178899;28;20198;-58
2021/09/02 09:43:22;;;;;;;8.77;7.70;;;23.70;97.10;;;24.33;46.11;98763.28;5174831;28;20654;-56
2021/09/02 09:45:56;;;;;;;7.28;6.70;;;23.70;96.10;;;24.17;46.32;98756.88;5177217;28;20499;-59
2021/09/02 09:48:36;;;;;;;7.93;7.22;;;23.60;96.10;;;24.12;48.15;98753.31;5172915;28;20222;-59
2021/09/02 09:51:16;;;;;;;8.05;7.45;;;23.60;96.90;;;23.87;48.04;98764.19;5175443;28;20576;-58
2021/09/02 09:53:53;;;;;;;8.43;7.60;;;23.40;96.90;;;23.97;47.40;98753.06;5178033;28;20225;-59
2021/09/02 09:56:27;;;;;;;8.70;7.80;;;23.40;96.80;;;24.13;46.96;98752.47;5177922;28;20590;-57
2021/09/02 09:59:02;;;;;;;8.50;7.80;;;23.60;96.40;;;24.06;47.85;98745.38;5180922;28;20198;-59
2021/09/02 10:01:36;;;;;;;8.55;7.72;;;23.60;96.60;;;24.14;48.32;98741.16;5176691;28;20713;-59
2021/09/02 10:04:11;;;;;;;7.90;7.20;;;23.40;97.20;;;24.16;46.50;98744.69;5170086;28;20604;-59
2021/09/02 10:06:44;;;;;;;7.20;6.50;;;23.50;96.00;;;23.90;45.35;98743.38;5175922;28;20574;-59
2021/09/02 10:09:19;;;;;;;6.95;6.35;;;23.40;94.90;;;23.87;43.83;98746.78;5170847;28;20202;-59
2021/09/02 10:11:52;;;;;;;7.25;6.65;;;23.40;93.60;;;23.62;44.61;98740.19;5174721;28;20732;-58
2021/09/02 10:14:25;;;;;;;7.30;6.57;;;23.10;94.30;;;23.65;44.69;98732.41;5173030;28;20237;-59
2021/09/02 10:16:59;;;;;;;7.18;6.47;;;23.20;93.90;;;23.78;44.23;98734.44;5180544;28;20628;-59
2021/09/02 10:19:34;;;;;;;7.00;6.30;;;23.30;94.00;;;23.76;43.57;98743.09;5169534;28;20214;-59
2021/09/02 10:22:11;;;;;;;7.30;6.60;;;23.30;93.30;;;23.38;43.97;98730.16;5172993;28;20210;-57
2021/09/02 10:24:45;;;;;;;7.28;6.57;;;23.00;93.40;;;23.46;44.60;98732.91;5179073;28;20198;-58
2021/09/02 10:27:37;;;;;;;6.95;6.35;;;23.00;93.70;;;23.39;44.27;98735.38;5172282;28;20205;-58
2021/09/02 10:30:24;;;;;;;7.05;6.40;;;22.90;93.70;;;23.41;45.16;98721.47;5179669;28;20203;-58
2021/09/02 10:32:59;;;;;;;6.88;6.28;;;22.90;94.10;;;23.61;44.90;98728.00;5175013;28;20602;-58
2021/09/02 10:35:37;;;;;;;6.93;6.32;;;23.10;94.10;;;23.76;44.91;98733.53;5171220;28;20203;-56
2021/09/02 10:38:10;;;;;;;6.82;6.22;;;23.20;94.20;;;23.73;43.70;98728.25;5179113;28;20226;-57
2021/09/02 10:40:48;;;;;;;6.80;6.30;;;23.10;93.40;;;23.73;44.17;98717.81;5173656;28;20207;-59
2021/09/02 10:43:49;;;;;;;6.35;5.85;;;23.30;93.60;;;23.78;43.70;98724.00;5170966;28;20759;-58
2021/09/02 10:46:29;;;;;;;6.50;6.00;;;23.20;93.00;;;23.58;43.63;98715.75;5177615;28;20198;-59
2021/09/02 10:49:29;;;;;;;6.72;6.13;;;23.20;92.80;;;23.76;42.85;98719.59;5171078;28;20209;-59